Lakewood, Colorado
Current Conditions -  °F | °C
As of 8:46 PM on Sunday 25 Jan 2015 (Local Time) from KBJC Reporting Station
Clear Clear  
Wind Chill:   Ceiling: Unl
Heat Index:   Visibility: 30mi
Dew Point: -4°   Wind: 9mph
Humidity: 43%   Direction: 270°W
Pressure: 30.19"   Gusts: NA
Location:  39.71°N, 105.08°W
Report Text: KBJC 260346Z 27008KT 30SM SKC 08/M04 A3019
Loading
Personal Weather Stations






























Interactive Weather Map New forecast layout! Learn more

10-Day Weather Forecast

Advertisements
Track Severe Weather on mobile